sensor_id;sensor_type;location;lat;lon;timestamp;P1;durP1;ratioP1;P2;durP2;ratioP2
25351;SDS011;13304;48.464;8.712;2022-07-21T00:01:23;9.82;;;6.63;;
25351;SDS011;13304;48.464;8.712;2022-07-21T00:03:49;9.57;;;6.93;;
25351;SDS011;13304;48.464;8.712;2022-07-21T00:06:14;10.05;;;6.97;;
25351;SDS011;13304;48.464;8.712;2022-07-21T00:08:40;11.20;;;7.13;;
25351;SDS011;13304;48.464;8.712;2022-07-21T00:11:06;8.38;;;6.78;;
25351;SDS011;13304;48.464;8.712;2022-07-21T00:13:32;10.48;;;6.88;;
25351;SDS011;13304;48.464;8.712;2022-07-21T00:15:58;9.82;;;7.28;;
25351;SDS011;13304;48.464;8.712;2022-07-21T00:18:24;10.07;;;6.50;;
25351;SDS011;13304;48.464;8.712;2022-07-21T00:20:50;8.25;;;6.13;;
25351;SDS011;13304;48.464;8.712;2022-07-21T00:23:15;9.55;;;5.93;;
25351;SDS011;13304;48.464;8.712;2022-07-21T00:25:41;6.80;;;5.20;;
25351;SDS011;13304;48.464;8.712;2022-07-21T00:28:07;11.07;;;5.63;;
25351;SDS011;13304;48.464;8.712;2022-07-21T00:30:33;7.25;;;5.63;;
25351;SDS011;13304;48.464;8.712;2022-07-21T00:32:59;10.25;;;5.57;;
25351;SDS011;13304;48.464;8.712;2022-07-21T00:35:25;7.72;;;5.57;;
25351;SDS011;13304;48.464;8.712;2022-07-21T00:37:51;9.10;;;5.60;;
25351;SDS011;13304;48.464;8.712;2022-07-21T00:40:17;9.18;;;6.10;;
25351;SDS011;13304;48.464;8.712;2022-07-21T00:42:43;8.15;;;5.07;;
25351;SDS011;13304;48.464;8.712;2022-07-21T00:45:10;7.68;;;5.95;;
25351;SDS011;13304;48.464;8.712;2022-07-21T00:47:37;7.22;;;5.88;;
25351;SDS011;13304;48.464;8.712;2022-07-21T00:50:04;6.32;;;5.35;;
25351;SDS011;13304;48.464;8.712;2022-07-21T00:52:32;8.65;;;5.78;;
25351;SDS011;13304;48.464;8.712;2022-07-21T00:54:58;10.65;;;5.78;;
25351;SDS011;13304;48.464;8.712;2022-07-21T00:57:25;8.52;;;5.95;;
25351;SDS011;13304;48.464;8.712;2022-07-21T00:59:51;7.32;;;6.15;;
25351;SDS011;13304;48.464;8.712;2022-07-21T01:02:16;7.57;;;6.30;;
25351;SDS011;13304;48.464;8.712;2022-07-21T01:04:42;9.90;;;6.50;;
25351;SDS011;13304;48.464;8.712;2022-07-21T01:07:08;8.73;;;5.82;;
25351;SDS011;13304;48.464;8.712;2022-07-21T01:09:34;7.30;;;6.00;;
25351;SDS011;13304;48.464;8.712;2022-07-21T01:12:01;8.82;;;6.00;;
25351;SDS011;13304;48.464;8.712;2022-07-21T01:14:27;7.22;;;5.35;;
25351;SDS011;13304;48.464;8.712;2022-07-21T01:16:53;9.23;;;5.95;;
25351;SDS011;13304;48.464;8.712;2022-07-21T01:19:19;9.13;;;5.75;;
25351;SDS011;13304;48.464;8.712;2022-07-21T01:21:45;8.65;;;6.50;;
25351;SDS011;13304;48.464;8.712;2022-07-21T01:24:13;8.80;;;6.53;;
25351;SDS011;13304;48.464;8.712;2022-07-21T01:26:51;11.13;;;6.20;;
25351;SDS011;13304;48.464;8.712;2022-07-21T01:29:18;18.67;;;8.32;;
25351;SDS011;13304;48.464;8.712;2022-07-21T01:31:45;14.52;;;7.47;;
25351;SDS011;13304;48.464;8.712;2022-07-21T01:34:12;10.90;;;7.43;;
25351;SDS011;13304;48.464;8.712;2022-07-21T01:36:39;13.27;;;7.15;;
25351;SDS011;13304;48.464;8.712;2022-07-21T01:39:05;8.52;;;6.57;;
25351;SDS011;13304;48.464;8.712;2022-07-21T01:41:51;8.40;;;6.43;;
25351;SDS011;13304;48.464;8.712;2022-07-21T01:44:17;8.95;;;6.40;;
25351;SDS011;13304;48.464;8.712;2022-07-21T01:46:44;13.10;;;6.47;;
25351;SDS011;13304;48.464;8.712;2022-07-21T01:49:12;7.13;;;6.00;;
25351;SDS011;13304;48.464;8.712;2022-07-21T01:51:39;11.45;;;6.45;;
25351;SDS011;13304;48.464;8.712;2022-07-21T01:54:06;11.77;;;6.45;;
25351;SDS011;13304;48.464;8.712;2022-07-21T01:56:33;11.07;;;6.78;;
25351;SDS011;13304;48.464;8.712;2022-07-21T01:59:00;10.02;;;6.78;;
25351;SDS011;13304;48.464;8.712;2022-07-21T02:01:27;9.20;;;6.40;;
25351;SDS011;13304;48.464;8.712;2022-07-21T02:03:54;8.25;;;6.30;;
25351;SDS011;13304;48.464;8.712;2022-07-21T02:06:25;9.07;;;6.80;;
25351;SDS011;13304;48.464;8.712;2022-07-21T02:08:51;8.50;;;6.95;;
25351;SDS011;13304;48.464;8.712;2022-07-21T02:11:17;9.05;;;6.63;;
25351;SDS011;13304;48.464;8.712;2022-07-21T02:13:43;7.97;;;6.72;;
25351;SDS011;13304;48.464;8.712;2022-07-21T02:16:10;11.38;;;7.15;;
25351;SDS011;13304;48.464;8.712;2022-07-21T02:18:36;8.73;;;7.00;;
25351;SDS011;13304;48.464;8.712;2022-07-21T02:21:03;9.80;;;6.97;;
25351;SDS011;13304;48.464;8.712;2022-07-21T02:23:29;10.13;;;6.65;;
25351;SDS011;13304;48.464;8.712;2022-07-21T02:25:55;12.82;;;6.45;;
25351;SDS011;13304;48.464;8.712;2022-07-21T02:28:22;11.02;;;7.63;;
25351;SDS011;13304;48.464;8.712;2022-07-21T02:30:48;7.72;;;6.93;;
25351;SDS011;13304;48.464;8.712;2022-07-21T02:33:15;10.32;;;6.93;;
25351;SDS011;13304;48.464;8.712;2022-07-21T02:35:41;8.27;;;6.93;;
25351;SDS011;13304;48.464;8.712;2022-07-21T02:38:07;9.95;;;6.82;;
25351;SDS011;13304;48.464;8.712;2022-07-21T02:40:33;9.63;;;7.15;;
25351;SDS011;13304;48.464;8.712;2022-07-21T02:42:59;9.95;;;7.10;;
25351;SDS011;13304;48.464;8.712;2022-07-21T02:45:24;8.77;;;6.80;;
25351;SDS011;13304;48.464;8.712;2022-07-21T02:50:17;11.43;;;6.68;;
25351;SDS011;13304;48.464;8.712;2022-07-21T02:52:44;7.90;;;6.95;;
25351;SDS011;13304;48.464;8.712;2022-07-21T02:55:10;11.77;;;6.93;;
25351;SDS011;13304;48.464;8.712;2022-07-21T02:57:36;7.90;;;7.10;;
25351;SDS011;13304;48.464;8.712;2022-07-21T03:00:03;10.82;;;6.75;;
25351;SDS011;13304;48.464;8.712;2022-07-21T03:02:31;14.82;;;7.32;;
25351;SDS011;13304;48.464;8.712;2022-07-21T03:04:57;10.95;;;6.88;;
25351;SDS011;13304;48.464;8.712;2022-07-21T03:07:23;9.23;;;7.03;;
25351;SDS011;13304;48.464;8.712;2022-07-21T03:09:49;8.75;;;7.05;;
25351;SDS011;13304;48.464;8.712;2022-07-21T03:12:14;9.18;;;7.00;;
25351;SDS011;13304;48.464;8.712;2022-07-21T03:14:40;14.23;;;7.03;;
25351;SDS011;13304;48.464;8.712;2022-07-21T03:17:06;8.75;;;7.03;;
25351;SDS011;13304;48.464;8.712;2022-07-21T03:19:34;9.55;;;7.10;;
25351;SDS011;13304;48.464;8.712;2022-07-21T03:22:01;8.98;;;7.10;;
25351;SDS011;13304;48.464;8.712;2022-07-21T03:27:54;13.23;;;7.57;;
25351;SDS011;13304;48.464;8.712;2022-07-21T03:30:21;8.90;;;7.18;;
25351;SDS011;13304;48.464;8.712;2022-07-21T03:32:47;12.23;;;7.80;;
25351;SDS011;13304;48.464;8.712;2022-07-21T03:35:14;13.30;;;8.05;;
25351;SDS011;13304;48.464;8.712;2022-07-21T03:37:44;12.40;;;8.10;;
25351;SDS011;13304;48.464;8.712;2022-07-21T03:40:11;9.82;;;6.88;;
25351;SDS011;13304;48.464;8.712;2022-07-21T03:42:38;9.55;;;7.43;;
25351;SDS011;13304;48.464;8.712;2022-07-21T03:45:04;9.10;;;7.57;;
25351;SDS011;13304;48.464;8.712;2022-07-21T03:47:31;10.25;;;7.40;;
25351;SDS011;13304;48.464;8.712;2022-07-21T03:49:57;9.60;;;7.15;;
25351;SDS011;13304;48.464;8.712;2022-07-21T03:52:23;8.75;;;6.78;;
25351;SDS011;13304;48.464;8.712;2022-07-21T03:54:49;11.77;;;7.90;;
25351;SDS011;13304;48.464;8.712;2022-07-21T03:57:14;9.52;;;7.50;;
25351;SDS011;13304;48.464;8.712;2022-07-21T03:59:40;9.27;;;7.03;;
25351;SDS011;13304;48.464;8.712;2022-07-21T04:02:06;10.75;;;7.05;;
25351;SDS011;13304;48.464;8.712;2022-07-21T04:04:32;8.52;;;6.93;;
25351;SDS011;13304;48.464;8.712;2022-07-21T04:06:57;8.95;;;7.38;;
25351;SDS011;13304;48.464;8.712;2022-07-21T04:09:23;10.38;;;7.35;;
25351;SDS011;13304;48.464;8.712;2022-07-21T04:11:49;10.40;;;6.70;;
25351;SDS011;13304;48.464;8.712;2022-07-21T04:14:15;11.18;;;7.03;;
25351;SDS011;13304;48.464;8.712;2022-07-21T04:16:40;16.02;;;7.93;;
25351;SDS011;13304;48.464;8.712;2022-07-21T04:19:06;9.57;;;7.20;;
25351;SDS011;13304;48.464;8.712;2022-07-21T04:21:32;9.48;;;7.30;;
25351;SDS011;13304;48.464;8.712;2022-07-21T04:23:58;11.15;;;7.57;;
25351;SDS011;13304;48.464;8.712;2022-07-21T04:26:23;9.25;;;7.90;;
25351;SDS011;13304;48.464;8.712;2022-07-21T04:28:49;8.55;;;7.30;;
25351;SDS011;13304;48.464;8.712;2022-07-21T04:31:15;11.57;;;7.53;;
25351;SDS011;13304;48.464;8.712;2022-07-21T04:33:41;11.00;;;8.10;;
25351;SDS011;13304;48.464;8.712;2022-07-21T04:36:07;11.80;;;7.80;;
25351;SDS011;13304;48.464;8.712;2022-07-21T04:38:33;10.57;;;8.73;;
25351;SDS011;13304;48.464;8.712;2022-07-21T04:40:59;11.52;;;8.43;;
25351;SDS011;13304;48.464;8.712;2022-07-21T04:43:24;16.05;;;8.57;;
25351;SDS011;13304;48.464;8.712;2022-07-21T04:45:50;13.95;;;8.63;;
25351;SDS011;13304;48.464;8.712;2022-07-21T04:48:16;12.48;;;9.00;;
25351;SDS011;13304;48.464;8.712;2022-07-21T04:50:42;12.20;;;8.75;;
25351;SDS011;13304;48.464;8.712;2022-07-21T04:53:08;10.57;;;8.10;;
25351;SDS011;13304;48.464;8.712;2022-07-21T04:55:34;12.02;;;8.57;;
25351;SDS011;13304;48.464;8.712;2022-07-21T04:58:00;11.10;;;8.98;;
25351;SDS011;13304;48.464;8.712;2022-07-21T05:00:27;11.98;;;9.23;;
25351;SDS011;13304;48.464;8.712;2022-07-21T05:02:54;12.05;;;8.77;;
25351;SDS011;13304;48.464;8.712;2022-07-21T05:05:21;10.93;;;8.85;;
25351;SDS011;13304;48.464;8.712;2022-07-21T05:07:46;13.05;;;9.18;;
25351;SDS011;13304;48.464;8.712;2022-07-21T05:10:13;10.57;;;8.30;;
25351;SDS011;13304;48.464;8.712;2022-07-21T05:12:40;11.32;;;8.15;;
25351;SDS011;13304;48.464;8.712;2022-07-21T05:15:07;9.57;;;7.88;;
25351;SDS011;13304;48.464;8.712;2022-07-21T05:17:36;10.15;;;8.23;;
25351;SDS011;13304;48.464;8.712;2022-07-21T05:20:02;9.27;;;7.55;;
25351;SDS011;13304;48.464;8.712;2022-07-21T05:22:30;10.63;;;8.35;;
25351;SDS011;13304;48.464;8.712;2022-07-21T05:24:55;9.55;;;8.18;;
25351;SDS011;13304;48.464;8.712;2022-07-21T05:27:21;11.15;;;8.13;;
25351;SDS011;13304;48.464;8.712;2022-07-21T05:29:47;11.02;;;8.77;;
25351;SDS011;13304;48.464;8.712;2022-07-21T05:32:13;9.43;;;8.18;;
25351;SDS011;13304;48.464;8.712;2022-07-21T05:34:39;11.30;;;8.57;;
25351;SDS011;13304;48.464;8.712;2022-07-21T05:37:05;9.55;;;8.18;;
25351;SDS011;13304;48.464;8.712;2022-07-21T05:39:31;9.43;;;8.43;;
25351;SDS011;13304;48.464;8.712;2022-07-21T05:41:57;9.68;;;8.40;;
25351;SDS011;13304;48.464;8.712;2022-07-21T05:44:23;11.25;;;8.27;;
25351;SDS011;13304;48.464;8.712;2022-07-21T05:46:49;13.38;;;8.40;;
25351;SDS011;13304;48.464;8.712;2022-07-21T05:49:15;12.88;;;9.40;;
25351;SDS011;13304;48.464;8.712;2022-07-21T05:51:40;12.60;;;8.50;;
25351;SDS011;13304;48.464;8.712;2022-07-21T05:54:06;10.85;;;8.55;;
25351;SDS011;13304;48.464;8.712;2022-07-21T05:56:32;9.23;;;8.02;;
25351;SDS011;13304;48.464;8.712;2022-07-21T05:58:58;10.18;;;7.55;;
25351;SDS011;13304;48.464;8.712;2022-07-21T06:01:23;9.50;;;7.90;;
25351;SDS011;13304;48.464;8.712;2022-07-21T06:03:50;10.27;;;7.43;;
25351;SDS011;13304;48.464;8.712;2022-07-21T06:06:17;9.05;;;7.03;;
25351;SDS011;13304;48.464;8.712;2022-07-21T06:08:46;10.50;;;8.00;;
25351;SDS011;13304;48.464;8.712;2022-07-21T06:11:14;11.48;;;7.53;;
25351;SDS011;13304;48.464;8.712;2022-07-21T06:13:41;10.85;;;7.70;;
25351;SDS011;13304;48.464;8.712;2022-07-21T06:16:07;9.50;;;7.30;;
25351;SDS011;13304;48.464;8.712;2022-07-21T06:18:34;11.07;;;7.50;;
25351;SDS011;13304;48.464;8.712;2022-07-21T06:21:00;10.57;;;8.05;;
25351;SDS011;13304;48.464;8.712;2022-07-21T06:23:26;10.68;;;8.10;;
25351;SDS011;13304;48.464;8.712;2022-07-21T06:25:53;9.60;;;7.57;;
25351;SDS011;13304;48.464;8.712;2022-07-21T06:28:19;8.13;;;7.10;;
25351;SDS011;13304;48.464;8.712;2022-07-21T06:30:45;8.85;;;7.70;;
25351;SDS011;13304;48.464;8.712;2022-07-21T06:33:12;12.93;;;6.97;;
25351;SDS011;13304;48.464;8.712;2022-07-21T06:35:38;9.70;;;7.03;;
25351;SDS011;13304;48.464;8.712;2022-07-21T06:38:04;8.73;;;7.25;;
25351;SDS011;13304;48.464;8.712;2022-07-21T06:40:30;9.43;;;7.30;;
25351;SDS011;13304;48.464;8.712;2022-07-21T06:42:56;8.88;;;6.95;;
25351;SDS011;13304;48.464;8.712;2022-07-21T06:45:23;8.63;;;6.85;;
25351;SDS011;13304;48.464;8.712;2022-07-21T06:47:49;10.25;;;6.03;;
25351;SDS011;13304;48.464;8.712;2022-07-21T06:50:15;9.15;;;6.78;;
25351;SDS011;13304;48.464;8.712;2022-07-21T06:52:41;8.48;;;6.68;;
25351;SDS011;13304;48.464;8.712;2022-07-21T06:55:08;8.48;;;6.75;;
25351;SDS011;13304;48.464;8.712;2022-07-21T06:57:34;11.55;;;6.97;;
25351;SDS011;13304;48.464;8.712;2022-07-21T07:00:03;7.07;;;6.30;;
25351;SDS011;13304;48.464;8.712;2022-07-21T07:02:30;8.30;;;6.35;;
25351;SDS011;13304;48.464;8.712;2022-07-21T07:04:56;12.07;;;7.07;;
25351;SDS011;13304;48.464;8.712;2022-07-21T07:07:21;9.93;;;6.13;;
25351;SDS011;13304;48.464;8.712;2022-07-21T07:09:47;9.68;;;7.10;;
25351;SDS011;13304;48.464;8.712;2022-07-21T07:12:13;10.13;;;6.57;;
25351;SDS011;13304;48.464;8.712;2022-07-21T07:14:39;9.13;;;6.30;;
25351;SDS011;13304;48.464;8.712;2022-07-21T07:17:05;6.28;;;5.32;;
25351;SDS011;13304;48.464;8.712;2022-07-21T07:19:31;8.55;;;6.57;;
25351;SDS011;13304;48.464;8.712;2022-07-21T07:21:57;11.25;;;7.65;;
25351;SDS011;13304;48.464;8.712;2022-07-21T07:24:23;13.40;;;6.40;;
25351;SDS011;13304;48.464;8.712;2022-07-21T07:26:49;11.07;;;6.95;;
25351;SDS011;13304;48.464;8.712;2022-07-21T07:29:15;6.78;;;5.78;;
25351;SDS011;13304;48.464;8.712;2022-07-21T07:31:41;12.23;;;6.65;;
25351;SDS011;13304;48.464;8.712;2022-07-21T07:34:07;11.50;;;7.00;;
25351;SDS011;13304;48.464;8.712;2022-07-21T07:36:34;10.63;;;6.28;;
25351;SDS011;13304;48.464;8.712;2022-07-21T07:39:01;7.45;;;6.00;;
25351;SDS011;13304;48.464;8.712;2022-07-21T07:41:28;10.48;;;6.15;;
25351;SDS011;13304;48.464;8.712;2022-07-21T07:43:54;8.27;;;6.38;;
25351;SDS011;13304;48.464;8.712;2022-07-21T07:46:20;10.10;;;6.57;;
25351;SDS011;13304;48.464;8.712;2022-07-21T07:48:46;9.48;;;6.68;;
25351;SDS011;13304;48.464;8.712;2022-07-21T07:51:13;8.75;;;6.25;;
25351;SDS011;13304;48.464;8.712;2022-07-21T07:53:39;8.88;;;6.28;;
25351;SDS011;13304;48.464;8.712;2022-07-21T07:56:06;8.45;;;6.22;;
25351;SDS011;13304;48.464;8.712;2022-07-21T07:58:32;8.43;;;5.72;;
25351;SDS011;13304;48.464;8.712;2022-07-21T08:00:58;10.07;;;7.00;;
25351;SDS011;13304;48.464;8.712;2022-07-21T08:03:25;11.68;;;6.55;;
25351;SDS011;13304;48.464;8.712;2022-07-21T08:05:53;8.73;;;6.70;;
25351;SDS011;13304;48.464;8.712;2022-07-21T08:08:20;8.55;;;6.30;;
25351;SDS011;13304;48.464;8.712;2022-07-21T08:10:47;9.82;;;6.88;;
25351;SDS011;13304;48.464;8.712;2022-07-21T08:13:14;8.48;;;6.80;;
25351;SDS011;13304;48.464;8.712;2022-07-21T08:15:42;8.55;;;5.90;;
25351;SDS011;13304;48.464;8.712;2022-07-21T08:18:08;10.52;;;5.70;;
25351;SDS011;13304;48.464;8.712;2022-07-21T08:20:35;9.52;;;6.70;;
25351;SDS011;13304;48.464;8.712;2022-07-21T08:23:02;7.38;;;5.68;;
25351;SDS011;13304;48.464;8.712;2022-07-21T08:25:28;6.93;;;5.10;;
25351;SDS011;13304;48.464;8.712;2022-07-21T08:27:54;8.32;;;5.40;;
25351;SDS011;13304;48.464;8.712;2022-07-21T08:30:20;7.95;;;5.32;;
25351;SDS011;13304;48.464;8.712;2022-07-21T08:32:46;9.00;;;5.43;;
25351;SDS011;13304;48.464;8.712;2022-07-21T08:35:12;8.43;;;5.13;;
25351;SDS011;13304;48.464;8.712;2022-07-21T08:37:38;6.53;;;4.47;;
25351;SDS011;13304;48.464;8.712;2022-07-21T08:40:06;8.38;;;4.82;;
25351;SDS011;13304;48.464;8.712;2022-07-21T08:42:33;8.00;;;4.67;;
25351;SDS011;13304;48.464;8.712;2022-07-21T08:45:00;8.32;;;4.63;;
25351;SDS011;13304;48.464;8.712;2022-07-21T08:47:26;8.88;;;5.18;;
25351;SDS011;13304;48.464;8.712;2022-07-21T08:49:53;7.07;;;4.63;;
25351;SDS011;13304;48.464;8.712;2022-07-21T08:52:20;5.85;;;4.50;;
25351;SDS011;13304;48.464;8.712;2022-07-21T08:54:46;7.32;;;4.57;;
25351;SDS011;13304;48.464;8.712;2022-07-21T08:57:12;8.80;;;5.10;;
25351;SDS011;13304;48.464;8.712;2022-07-21T08:59:38;6.10;;;4.40;;
25351;SDS011;13304;48.464;8.712;2022-07-21T09:02:04;6.45;;;4.38;;
25351;SDS011;13304;48.464;8.712;2022-07-21T09:04:31;5.28;;;4.10;;
25351;SDS011;13304;48.464;8.712;2022-07-21T09:07:02;7.93;;;5.00;;
25351;SDS011;13304;48.464;8.712;2022-07-21T09:09:30;5.38;;;4.35;;
25351;SDS011;13304;48.464;8.712;2022-07-21T09:11:57;6.15;;;4.30;;
25351;SDS011;13304;48.464;8.712;2022-07-21T09:14:24;10.38;;;4.60;;
25351;SDS011;13304;48.464;8.712;2022-07-21T09:16:53;8.95;;;4.45;;
25351;SDS011;13304;48.464;8.712;2022-07-21T09:19:25;7.18;;;4.75;;
25351;SDS011;13304;48.464;8.712;2022-07-21T09:21:55;6.30;;;4.80;;
25351;SDS011;13304;48.464;8.712;2022-07-21T09:24:33;8.18;;;5.03;;
25351;SDS011;13304;48.464;8.712;2022-07-21T09:27:04;9.23;;;4.65;;
25351;SDS011;13304;48.464;8.712;2022-07-21T09:29:42;6.18;;;4.00;;
25351;SDS011;13304;48.464;8.712;2022-07-21T09:32:13;5.38;;;3.78;;
25351;SDS011;13304;48.464;8.712;2022-07-21T09:34:39;6.93;;;3.63;;
25351;SDS011;13304;48.464;8.712;2022-07-21T09:37:05;6.13;;;3.47;;
25351;SDS011;13304;48.464;8.712;2022-07-21T09:42:14;8.35;;;4.03;;
25351;SDS011;13304;48.464;8.712;2022-07-21T09:44:59;5.32;;;3.78;;
25351;SDS011;13304;48.464;8.712;2022-07-21T09:47:28;5.38;;;4.15;;
25351;SDS011;13304;48.464;8.712;2022-07-21T09:49:55;7.10;;;4.05;;
25351;SDS011;13304;48.464;8.712;2022-07-21T09:55:00;4.35;;;3.00;;
25351;SDS011;13304;48.464;8.712;2022-07-21T09:57:29;3.13;;;2.70;;
25351;SDS011;13304;48.464;8.712;2022-07-21T09:59:58;4.90;;;2.88;;
25351;SDS011;13304;48.464;8.712;2022-07-21T10:02:26;4.40;;;3.30;;
25351;SDS011;13304;48.464;8.712;2022-07-21T10:04:57;3.77;;;3.00;;
25351;SDS011;13304;48.464;8.712;2022-07-21T10:07:26;7.10;;;3.25;;
25351;SDS011;13304;48.464;8.712;2022-07-21T10:09:53;6.97;;;3.28;;
25351;SDS011;13304;48.464;8.712;2022-07-21T10:12:19;4.57;;;2.97;;
25351;SDS011;13304;48.464;8.712;2022-07-21T10:14:46;4.72;;;2.95;;
25351;SDS011;13304;48.464;8.712;2022-07-21T10:17:18;7.10;;;3.17;;
25351;SDS011;13304;48.464;8.712;2022-07-21T10:25:21;4.30;;;3.30;;
25351;SDS011;13304;48.464;8.712;2022-07-21T10:28:21;4.80;;;3.40;;
25351;SDS011;13304;48.464;8.712;2022-07-21T10:30:40;4.50;;;2.97;;
25351;SDS011;13304;48.464;8.712;2022-07-21T10:33:11;4.88;;;3.08;;
25351;SDS011;13304;48.464;8.712;2022-07-21T10:35:43;5.15;;;3.33;;
25351;SDS011;13304;48.464;8.712;2022-07-21T10:38:29;4.13;;;3.13;;
25351;SDS011;13304;48.464;8.712;2022-07-21T10:41:00;4.15;;;3.20;;
25351;SDS011;13304;48.464;8.712;2022-07-21T10:45:55;4.55;;;3.15;;
25351;SDS011;13304;48.464;8.712;2022-07-21T10:51:13;4.25;;;3.03;;
25351;SDS011;13304;48.464;8.712;2022-07-21T10:53:40;3.72;;;2.97;;
25351;SDS011;13304;48.464;8.712;2022-07-21T10:56:06;5.43;;;3.03;;
25351;SDS011;13304;48.464;8.712;2022-07-21T11:04:10;3.70;;;3.17;;
25351;SDS011;13304;48.464;8.712;2022-07-21T11:06:38;6.03;;;3.03;;
25351;SDS011;13304;48.464;8.712;2022-07-21T11:09:09;4.53;;;2.97;;
25351;SDS011;13304;48.464;8.712;2022-07-21T11:11:37;4.55;;;3.08;;
25351;SDS011;13304;48.464;8.712;2022-07-21T11:14:40;6.93;;;3.10;;
25351;SDS011;13304;48.464;8.712;2022-07-21T11:17:23;4.55;;;3.33;;
25351;SDS011;13304;48.464;8.712;2022-07-21T11:19:53;5.97;;;3.05;;
25351;SDS011;13304;48.464;8.712;2022-07-21T11:22:23;4.97;;;3.38;;
25351;SDS011;13304;48.464;8.712;2022-07-21T11:25:00;4.45;;;3.00;;
25351;SDS011;13304;48.464;8.712;2022-07-21T11:27:29;4.47;;;3.10;;
25351;SDS011;13304;48.464;8.712;2022-07-21T11:29:57;4.68;;;3.08;;
25351;SDS011;13304;48.464;8.712;2022-07-21T11:32:25;5.45;;;3.20;;
25351;SDS011;13304;48.464;8.712;2022-07-21T11:34:58;4.22;;;3.42;;
25351;SDS011;13304;48.464;8.712;2022-07-21T11:40:03;6.10;;;3.20;;
25351;SDS011;13304;48.464;8.712;2022-07-21T11:42:31;4.63;;;3.35;;
25351;SDS011;13304;48.464;8.712;2022-07-21T11:44:57;6.63;;;3.60;;
25351;SDS011;13304;48.464;8.712;2022-07-21T11:47:23;4.20;;;3.20;;
25351;SDS011;13304;48.464;8.712;2022-07-21T11:49:52;3.63;;;2.83;;
25351;SDS011;13304;48.464;8.712;2022-07-21T11:52:24;3.80;;;3.13;;
25351;SDS011;13304;48.464;8.712;2022-07-21T11:54:52;4.47;;;3.13;;
25351;SDS011;13304;48.464;8.712;2022-07-21T11:57:20;4.05;;;2.88;;
25351;SDS011;13304;48.464;8.712;2022-07-21T11:59:47;7.95;;;3.20;;
25351;SDS011;13304;48.464;8.712;2022-07-21T12:04:49;4.53;;;3.00;;
25351;SDS011;13304;48.464;8.712;2022-07-21T12:09:43;7.57;;;3.35;;
25351;SDS011;13304;48.464;8.712;2022-07-21T12:12:11;6.53;;;3.67;;
25351;SDS011;13304;48.464;8.712;2022-07-21T12:14:50;6.57;;;3.50;;
25351;SDS011;13304;48.464;8.712;2022-07-21T12:19:43;5.22;;;3.72;;
25351;SDS011;13304;48.464;8.712;2022-07-21T12:22:09;3.97;;;2.85;;
25351;SDS011;13304;48.464;8.712;2022-07-21T12:24:52;4.70;;;3.10;;
25351;SDS011;13304;48.464;8.712;2022-07-21T12:27:20;6.28;;;3.40;;
25351;SDS011;13304;48.464;8.712;2022-07-21T12:29:46;4.55;;;3.05;;
25351;SDS011;13304;48.464;8.712;2022-07-21T12:32:12;5.32;;;3.08;;
25351;SDS011;13304;48.464;8.712;2022-07-21T12:34:49;7.40;;;3.33;;
25351;SDS011;13304;48.464;8.712;2022-07-21T12:37:16;5.97;;;3.55;;
25351;SDS011;13304;48.464;8.712;2022-07-21T12:39:42;4.07;;;3.17;;
25351;SDS011;13304;48.464;8.712;2022-07-21T12:42:30;6.15;;;3.15;;
25351;SDS011;13304;48.464;8.712;2022-07-21T12:44:58;8.23;;;2.88;;
25351;SDS011;13304;48.464;8.712;2022-07-21T12:47:25;5.70;;;3.75;;
25351;SDS011;13304;48.464;8.712;2022-07-21T12:50:01;5.70;;;3.55;;
25351;SDS011;13304;48.464;8.712;2022-07-21T12:52:29;4.03;;;3.22;;
25351;SDS011;13304;48.464;8.712;2022-07-21T12:54:56;4.28;;;3.25;;
25351;SDS011;13304;48.464;8.712;2022-07-21T12:57:30;5.35;;;3.65;;
25351;SDS011;13304;48.464;8.712;2022-07-21T12:59:58;4.05;;;3.33;;
25351;SDS011;13304;48.464;8.712;2022-07-21T13:02:25;5.40;;;3.17;;
25351;SDS011;13304;48.464;8.712;2022-07-21T13:04:52;6.88;;;3.33;;
25351;SDS011;13304;48.464;8.712;2022-07-21T13:07:18;5.65;;;3.47;;
25351;SDS011;13304;48.464;8.712;2022-07-21T13:09:44;3.85;;;3.22;;
25351;SDS011;13304;48.464;8.712;2022-07-21T13:12:14;4.90;;;3.28;;
25351;SDS011;13304;48.464;8.712;2022-07-21T13:14:40;4.20;;;3.38;;
25351;SDS011;13304;48.464;8.712;2022-07-21T13:17:07;4.85;;;3.22;;
25351;SDS011;13304;48.464;8.712;2022-07-21T13:19:33;11.82;;;3.47;;
25351;SDS011;13304;48.464;8.712;2022-07-21T13:24:29;4.28;;;3.42;;
25351;SDS011;13304;48.464;8.712;2022-07-21T13:26:55;5.32;;;3.28;;
25351;SDS011;13304;48.464;8.712;2022-07-21T13:29:21;6.45;;;3.35;;
25351;SDS011;13304;48.464;8.712;2022-07-21T13:31:47;4.10;;;2.88;;
25351;SDS011;13304;48.464;8.712;2022-07-21T13:34:13;4.30;;;3.15;;
25351;SDS011;13304;48.464;8.712;2022-07-21T13:36:38;3.40;;;3.05;;
25351;SDS011;13304;48.464;8.712;2022-07-21T13:39:05;3.95;;;2.92;;
25351;SDS011;13304;48.464;8.712;2022-07-21T13:41:31;5.50;;;3.22;;
25351;SDS011;13304;48.464;8.712;2022-07-21T13:43:58;6.00;;;3.35;;
25351;SDS011;13304;48.464;8.712;2022-07-21T13:46:24;5.05;;;3.28;;
25351;SDS011;13304;48.464;8.712;2022-07-21T13:48:51;4.38;;;3.22;;
25351;SDS011;13304;48.464;8.712;2022-07-21T13:51:17;4.45;;;3.35;;
25351;SDS011;13304;48.464;8.712;2022-07-21T13:53:44;4.95;;;3.40;;
25351;SDS011;13304;48.464;8.712;2022-07-21T13:56:12;4.78;;;3.30;;
25351;SDS011;13304;48.464;8.712;2022-07-21T13:58:39;5.45;;;3.30;;
25351;SDS011;13304;48.464;8.712;2022-07-21T14:01:07;3.28;;;2.47;;
25351;SDS011;13304;48.464;8.712;2022-07-21T14:03:33;3.72;;;3.03;;
25351;SDS011;13304;48.464;8.712;2022-07-21T14:06:00;5.00;;;3.20;;
25351;SDS011;13304;48.464;8.712;2022-07-21T14:08:26;3.80;;;2.85;;
25351;SDS011;13304;48.464;8.712;2022-07-21T14:10:52;4.18;;;3.10;;
25351;SDS011;13304;48.464;8.712;2022-07-21T14:13:18;6.95;;;3.45;;
25351;SDS011;13304;48.464;8.712;2022-07-21T14:15:44;4.95;;;3.55;;
25351;SDS011;13304;48.464;8.712;2022-07-21T14:18:10;5.40;;;3.20;;
25351;SDS011;13304;48.464;8.712;2022-07-21T14:20:36;5.40;;;3.45;;
25351;SDS011;13304;48.464;8.712;2022-07-21T14:23:03;8.15;;;3.28;;
25351;SDS011;13304;48.464;8.712;2022-07-21T14:25:29;4.85;;;3.33;;
25351;SDS011;13304;48.464;8.712;2022-07-21T14:27:55;3.72;;;3.28;;
25351;SDS011;13304;48.464;8.712;2022-07-21T14:30:23;5.25;;;3.10;;
25351;SDS011;13304;48.464;8.712;2022-07-21T14:32:50;5.50;;;3.20;;
25351;SDS011;13304;48.464;8.712;2022-07-21T14:35:17;3.95;;;3.17;;
25351;SDS011;13304;48.464;8.712;2022-07-21T14:37:45;4.22;;;2.90;;
25351;SDS011;13304;48.464;8.712;2022-07-21T14:40:12;4.40;;;2.90;;
25351;SDS011;13304;48.464;8.712;2022-07-21T14:42:39;4.32;;;3.00;;
25351;SDS011;13304;48.464;8.712;2022-07-21T14:45:06;8.65;;;3.45;;
25351;SDS011;13304;48.464;8.712;2022-07-21T14:47:32;3.97;;;3.10;;
25351;SDS011;13304;48.464;8.712;2022-07-21T14:49:58;7.90;;;3.40;;
25351;SDS011;13304;48.464;8.712;2022-07-21T14:52:24;4.15;;;3.22;;
25351;SDS011;13304;48.464;8.712;2022-07-21T14:54:50;4.70;;;3.50;;
25351;SDS011;13304;48.464;8.712;2022-07-21T14:57:16;4.10;;;3.15;;
25351;SDS011;13304;48.464;8.712;2022-07-21T14:59:42;4.88;;;3.13;;
25351;SDS011;13304;48.464;8.712;2022-07-21T15:02:08;4.25;;;2.90;;
25351;SDS011;13304;48.464;8.712;2022-07-21T15:04:34;4.20;;;2.90;;
25351;SDS011;13304;48.464;8.712;2022-07-21T15:07:00;5.53;;;3.28;;
25351;SDS011;13304;48.464;8.712;2022-07-21T15:09:26;5.22;;;3.25;;
25351;SDS011;13304;48.464;8.712;2022-07-21T15:11:51;4.10;;;3.10;;
25351;SDS011;13304;48.464;8.712;2022-07-21T15:14:17;3.45;;;2.90;;
25351;SDS011;13304;48.464;8.712;2022-07-21T15:16:43;3.97;;;3.20;;
25351;SDS011;13304;48.464;8.712;2022-07-21T15:19:09;4.95;;;3.33;;
25351;SDS011;13304;48.464;8.712;2022-07-21T15:21:35;4.88;;;3.10;;
25351;SDS011;13304;48.464;8.712;2022-07-21T15:24:01;4.60;;;3.30;;